createdAt,value
2017-08-25T00:02:00.924Z,3.00
2017-08-25T00:04:29.266Z,3.10
2017-08-25T00:06:57.606Z,3.63
2017-08-25T00:09:25.960Z,3.37
2017-08-25T00:11:54.343Z,3.00
2017-08-25T00:14:22.691Z,3.50
2017-08-25T00:16:51.069Z,3.50
2017-08-25T00:19:19.657Z,3.60
2017-08-25T00:21:48.192Z,3.00
2017-08-25T00:24:16.532Z,3.33
2017-08-25T00:26:44.882Z,3.57
2017-08-25T00:29:13.250Z,3.27
2017-08-25T00:31:41.594Z,3.40
2017-08-25T00:34:09.955Z,3.20
2017-08-25T00:36:38.296Z,3.10
2017-08-25T00:39:06.667Z,3.53
2017-08-25T00:41:35.004Z,3.60
2017-08-25T00:44:03.352Z,3.07
2017-08-25T00:46:31.786Z,3.20
2017-08-25T00:49:00.127Z,3.33
2017-08-25T00:51:28.501Z,3.83
2017-08-25T00:53:56.857Z,3.27
2017-08-25T00:56:25.231Z,3.47
2017-08-25T00:58:53.565Z,2.90
2017-08-25T01:01:21.945Z,3.00
2017-08-25T01:03:50.722Z,3.67
2017-08-25T01:06:19.071Z,3.33
2017-08-25T01:08:47.438Z,3.33
2017-08-25T01:11:15.812Z,3.33
2017-08-25T01:13:44.155Z,3.23
2017-08-25T01:16:12.496Z,3.33
2017-08-25T01:18:40.839Z,3.30
2017-08-25T01:21:09.180Z,3.00
2017-08-25T01:23:37.511Z,3.77
2017-08-25T01:26:05.848Z,3.17
2017-08-25T01:28:34.192Z,3.03
2017-08-25T01:31:02.735Z,2.83
2017-08-25T01:33:31.079Z,3.13
2017-08-25T01:35:59.419Z,3.57
2017-08-25T01:38:27.760Z,2.83
2017-08-25T01:40:56.099Z,3.27
2017-08-25T01:43:24.442Z,3.30
2017-08-25T01:45:52.775Z,2.90
2017-08-25T01:48:21.157Z,3.10
2017-08-25T01:50:49.520Z,3.37
2017-08-25T01:53:17.892Z,3.40
2017-08-25T01:55:46.223Z,3.13
2017-08-25T01:58:14.684Z,3.20
2017-08-25T02:00:43.026Z,3.50
2017-08-25T02:03:11.400Z,3.03
2017-08-25T02:05:39.743Z,3.27
2017-08-25T02:08:08.076Z,3.27
2017-08-25T02:10:36.444Z,2.93
2017-08-25T02:13:04.787Z,3.03
2017-08-25T02:15:33.160Z,3.50
2017-08-25T02:18:01.486Z,3.37
2017-08-25T02:20:30.642Z,3.20
2017-08-25T02:22:58.974Z,2.80
2017-08-25T02:25:27.310Z,3.10
2017-08-25T02:27:55.674Z,2.90
2017-08-25T02:30:24.006Z,2.90
2017-08-25T02:32:52.343Z,2.90
2017-08-25T02:35:20.675Z,3.27
2017-08-25T02:37:49.012Z,3.27
2017-08-25T02:40:17.367Z,3.20
2017-08-25T02:42:45.703Z,3.33
2017-08-25T02:45:14.046Z,2.77
2017-08-25T02:47:42.379Z,2.80
2017-08-25T02:50:10.718Z,3.40
2017-08-25T02:52:39.046Z,3.60
2017-08-25T02:55:07.405Z,3.40
2017-08-25T02:57:35.766Z,3.03
2017-08-25T03:00:04.687Z,3.20
2017-08-25T03:02:33.156Z,3.80
2017-08-25T03:05:02.098Z,3.33
2017-08-25T03:07:30.855Z,3.00
2017-08-25T03:09:59.194Z,3.40
2017-08-25T03:12:27.558Z,3.13
2017-08-25T03:14:56.121Z,2.97
2017-08-25T03:17:25.875Z,3.70
2017-08-25T03:19:55.281Z,3.10
2017-08-25T03:22:24.479Z,3.60
2017-08-25T03:24:53.616Z,3.30
2017-08-25T03:27:22.585Z,3.20
2017-08-25T03:29:51.067Z,2.73
2017-08-25T03:32:19.394Z,3.53
2017-08-25T03:34:47.758Z,2.80
2017-08-25T03:37:16.090Z,2.77
2017-08-25T03:39:44.446Z,2.90
2017-08-25T03:42:12.778Z,3.43
2017-08-25T03:44:41.134Z,2.80
2017-08-25T03:47:09.481Z,2.60
2017-08-25T03:49:37.806Z,2.97
2017-08-25T03:52:06.140Z,2.30
2017-08-25T03:54:34.474Z,2.30
2017-08-25T03:57:03.332Z,2.80
2017-08-25T03:59:31.934Z,2.40
2017-08-25T04:02:00.783Z,3.00
2017-08-25T04:04:29.444Z,2.77
2017-08-25T04:06:59.086Z,2.70
2017-08-25T04:09:27.420Z,2.97
2017-08-25T04:11:55.778Z,2.43
2017-08-25T04:14:24.222Z,2.70
2017-08-25T04:16:52.558Z,2.67
2017-08-25T04:19:20.890Z,2.63
2017-08-25T04:21:49.218Z,2.80
2017-08-25T04:24:17.554Z,2.60
2017-08-25T04:26:45.890Z,2.17
2017-08-25T04:29:14.227Z,2.17
2017-08-25T04:31:42.562Z,2.40
2017-08-25T04:34:10.894Z,2.30
2017-08-25T04:36:39.242Z,2.73
2017-08-25T04:39:07.588Z,2.27
2017-08-25T04:41:35.923Z,2.60
2017-08-25T04:44:04.304Z,2.40
2017-08-25T04:46:32.630Z,2.50
2017-08-25T04:49:00.971Z,2.43
2017-08-25T04:51:29.322Z,2.40
2017-08-25T04:53:57.687Z,2.20
2017-08-25T04:56:26.054Z,2.40
2017-08-25T04:58:54.391Z,1.97
2017-08-25T05:01:22.715Z,2.10
2017-08-25T05:03:51.079Z,2.50
2017-08-25T05:06:19.435Z,2.40
2017-08-25T05:08:47.769Z,2.20
2017-08-25T05:11:16.106Z,2.20
2017-08-25T05:13:44.446Z,2.50
2017-08-25T05:16:12.786Z,2.07
2017-08-25T05:18:41.163Z,1.87
2017-08-25T05:21:09.488Z,2.10
2017-08-25T05:23:37.851Z,2.70
2017-08-25T05:26:06.182Z,2.10
2017-08-25T05:28:34.527Z,2.00
2017-08-25T05:31:02.868Z,2.00
2017-08-25T05:33:31.202Z,1.80
2017-08-25T05:35:59.531Z,2.20
2017-08-25T05:38:27.958Z,1.90
2017-08-25T05:40:56.295Z,1.93
2017-08-25T05:43:24.654Z,1.73
2017-08-25T05:45:53.391Z,1.77
2017-08-25T05:48:21.762Z,1.60
2017-08-25T05:50:50.111Z,1.57
2017-08-25T05:53:18.442Z,2.10
2017-08-25T05:55:46.786Z,1.90
2017-08-25T05:58:15.114Z,2.57
2017-08-25T06:00:43.455Z,1.87
2017-08-25T06:03:11.810Z,1.77
2017-08-25T06:05:40.146Z,1.57
2017-08-25T06:08:08.477Z,2.10
2017-08-25T06:10:37.262Z,1.77
2017-08-25T06:13:05.604Z,2.00
2017-08-25T06:15:33.954Z,1.80
2017-08-25T06:18:02.290Z,1.70
2017-08-25T06:20:30.625Z,1.67
2017-08-25T06:22:58.955Z,2.33
2017-08-25T06:25:27.291Z,1.73
2017-08-25T06:27:55.634Z,1.77
2017-08-25T06:30:23.971Z,1.50
2017-08-25T06:32:52.326Z,1.70
2017-08-25T06:35:20.664Z,1.83
2017-08-25T06:37:49.023Z,1.53
2017-08-25T06:40:17.354Z,1.90
2017-08-25T06:42:45.682Z,1.47
2017-08-25T06:45:14.023Z,2.00
2017-08-25T06:47:42.350Z,1.80
2017-08-25T06:50:10.686Z,2.00
2017-08-25T06:52:39.018Z,2.10
2017-08-25T06:55:07.390Z,1.80
2017-08-25T06:57:35.726Z,3.57
2017-08-25T07:00:04.071Z,2.80
2017-08-25T07:02:32.734Z,3.40
2017-08-25T07:05:01.062Z,1.93
2017-08-25T07:07:29.474Z,3.40
2017-08-25T07:09:57.865Z,1.90
2017-08-25T07:12:26.202Z,2.13
2017-08-25T07:14:54.531Z,1.80
2017-08-25T07:17:22.863Z,1.47
2017-08-25T07:19:51.198Z,1.50
2017-08-25T07:22:19.543Z,1.87
2017-08-25T07:24:47.879Z,2.63
2017-08-25T07:27:16.238Z,1.87
2017-08-25T07:29:44.571Z,4.23
2017-08-25T07:32:12.904Z,1.80
2017-08-25T07:34:41.243Z,1.80
2017-08-25T07:37:09.573Z,2.30
2017-08-25T07:39:37.939Z,1.80
2017-08-25T07:42:06.282Z,3.53
2017-08-25T07:44:34.615Z,2.63
2017-08-25T07:47:03.926Z,6.37
2017-08-25T07:49:32.266Z,8.43
2017-08-25T07:52:00.635Z,2.67
2017-08-25T07:54:28.962Z,2.77
2017-08-25T07:56:57.294Z,4.47
2017-08-25T07:59:25.659Z,7.43
2017-08-25T08:01:53.994Z,2.87
2017-08-25T08:04:22.322Z,2.80
2017-08-25T08:06:50.706Z,4.43
2017-08-25T08:09:19.048Z,4.47
2017-08-25T08:11:47.402Z,3.90
2017-08-25T08:14:15.746Z,3.00
2017-08-25T08:16:44.077Z,3.70
2017-08-25T08:19:12.414Z,3.93
2017-08-25T08:21:40.750Z,4.60
2017-08-25T08:24:09.095Z,6.50
2017-08-25T08:26:37.454Z,6.90
2017-08-25T08:29:05.799Z,9.33
2017-08-25T08:31:34.282Z,7.00
2017-08-25T08:34:02.853Z,8.47
2017-08-25T08:36:36.865Z,6.50
2017-08-25T08:39:05.635Z,4.43
2017-08-25T08:41:33.970Z,7.20
2017-08-25T08:44:02.314Z,7.60
2017-08-25T08:46:30.650Z,6.87
2017-08-25T08:48:59.016Z,5.03
2017-08-25T08:51:27.358Z,5.37
2017-08-25T08:53:55.698Z,5.70
2017-08-25T08:56:24.346Z,5.40
2017-08-25T08:58:52.692Z,2.97
2017-08-25T09:01:21.054Z,3.73
2017-08-25T09:03:49.394Z,4.27
2017-08-25T09:06:23.361Z,4.10
2017-08-25T09:08:51.834Z,3.90
2017-08-25T09:11:20.170Z,3.07
2017-08-25T09:13:49.387Z,3.87
2017-08-25T09:16:17.843Z,3.40
2017-08-25T09:18:46.174Z,3.40
2017-08-25T09:21:14.582Z,3.27
2017-08-25T09:23:42.983Z,3.67
2017-08-25T09:26:11.327Z,4.60
2017-08-25T09:28:39.773Z,3.17
2017-08-25T09:31:08.098Z,3.73
2017-08-25T09:33:36.438Z,3.67
2017-08-25T09:36:04.786Z,4.00
2017-08-25T09:38:33.134Z,3.80
2017-08-25T09:41:01.474Z,3.67
2017-08-25T09:43:29.842Z,3.90
2017-08-25T09:45:58.182Z,3.60
2017-08-25T09:48:26.546Z,3.43
2017-08-25T09:50:54.874Z,3.90
2017-08-25T09:53:23.210Z,3.13
2017-08-25T09:55:51.550Z,3.13
2017-08-25T09:58:19.891Z,3.00
2017-08-25T10:00:48.230Z,3.37
2017-08-25T10:03:16.559Z,2.70
2017-08-25T10:05:44.895Z,2.63
2017-08-25T10:08:13.222Z,2.83
2017-08-25T10:10:41.553Z,3.03
2017-08-25T10:13:09.914Z,2.50
2017-08-25T10:15:38.250Z,2.60
2017-08-25T10:18:06.595Z,3.00
2017-08-25T10:20:34.942Z,2.60
2017-08-25T10:23:03.306Z,2.83
2017-08-25T10:25:31.635Z,2.47
2017-08-25T10:28:00.013Z,2.60
2017-08-25T10:30:28.594Z,2.60
2017-08-25T10:32:56.958Z,3.17
2017-08-25T10:35:36.993Z,2.80
2017-08-25T10:38:17.254Z,2.37
2017-08-25T10:40:57.503Z,2.93
2017-08-25T10:43:37.490Z,2.83
2017-08-25T10:46:05.823Z,2.47
2017-08-25T10:48:34.214Z,2.73
2017-08-25T10:51:03.110Z,2.30
2017-08-25T10:53:31.595Z,2.47
2017-08-25T10:55:59.954Z,2.60
2017-08-25T10:58:28.573Z,2.90
2017-08-25T11:00:57.191Z,2.43
2017-08-25T11:03:25.530Z,2.50
2017-08-25T11:05:53.862Z,2.67
2017-08-25T11:08:22.199Z,3.00
2017-08-25T11:10:50.529Z,2.33
2017-08-25T11:13:18.907Z,2.70
2017-08-25T11:15:47.319Z,2.30
2017-08-25T11:18:15.655Z,2.60
2017-08-25T11:20:43.982Z,2.43
2017-08-25T11:23:12.315Z,2.50
2017-08-25T11:25:40.742Z,2.20
2017-08-25T11:28:09.072Z,2.73
2017-08-25T11:30:37.410Z,2.60
2017-08-25T11:33:05.766Z,2.20
2017-08-25T11:35:34.106Z,2.23
2017-08-25T11:38:02.478Z,2.70
2017-08-25T11:40:30.853Z,2.27
2017-08-25T11:42:59.188Z,2.57
2017-08-25T11:45:27.526Z,3.60
2017-08-25T11:47:55.859Z,2.83
2017-08-25T11:50:24.192Z,2.80
2017-08-25T11:52:52.522Z,2.13
2017-08-25T11:55:20.855Z,2.20
2017-08-25T11:57:49.219Z,2.90
2017-08-25T12:00:17.563Z,2.70
2017-08-25T12:02:45.896Z,2.43
2017-08-25T12:05:14.230Z,2.70
2017-08-25T12:07:42.574Z,2.20
2017-08-25T12:10:10.942Z,2.37
2017-08-25T12:12:39.297Z,2.30
2017-08-25T12:15:07.628Z,2.50
2017-08-25T12:17:37.294Z,2.57
2017-08-25T12:20:07.097Z,2.53
2017-08-25T12:22:35.422Z,3.40
2017-08-25T12:25:03.754Z,2.17
2017-08-25T12:27:32.328Z,2.10
2017-08-25T12:30:00.729Z,2.63
2017-08-25T12:32:29.070Z,2.67
2017-08-25T12:34:57.405Z,2.00
2017-08-25T12:37:25.766Z,2.27
2017-08-25T12:39:54.111Z,2.00
2017-08-25T12:42:22.463Z,2.07
2017-08-25T12:44:50.955Z,2.37
2017-08-25T12:47:19.314Z,2.40
2017-08-25T12:49:47.646Z,2.20
2017-08-25T12:52:15.981Z,2.03
2017-08-25T12:54:44.352Z,2.83
2017-08-25T12:57:12.695Z,2.60
2017-08-25T12:59:41.028Z,2.63
2017-08-25T13:02:09.366Z,3.20
2017-08-25T13:04:37.740Z,2.97
2017-08-25T13:07:06.082Z,3.50
2017-08-25T13:09:34.411Z,3.00
2017-08-25T13:12:02.886Z,3.00
2017-08-25T13:14:31.225Z,3.60
2017-08-25T13:16:59.559Z,3.23
2017-08-25T13:19:27.887Z,2.90
2017-08-25T13:21:56.243Z,3.63
2017-08-25T13:24:24.574Z,2.30
2017-08-25T13:26:52.922Z,3.00
2017-08-25T13:29:21.268Z,2.80
2017-08-25T13:31:49.598Z,2.90
2017-08-25T13:34:17.930Z,2.40
2017-08-25T13:36:46.258Z,2.80
2017-08-25T13:39:14.614Z,2.63
2017-08-25T13:41:42.945Z,2.53
2017-08-25T13:44:11.274Z,2.27
2017-08-25T13:46:39.611Z,3.00
2017-08-25T13:49:07.967Z,3.00
2017-08-25T13:51:36.303Z,2.77
2017-08-25T13:54:04.635Z,3.70
2017-08-25T13:56:32.966Z,3.00
2017-08-25T13:59:01.302Z,2.57
2017-08-25T14:01:29.659Z,3.67
2017-08-25T14:03:57.995Z,2.90
2017-08-25T14:06:26.331Z,3.50
2017-08-25T14:08:54.662Z,2.90
2017-08-25T14:11:22.999Z,2.50
2017-08-25T14:13:51.366Z,2.47
2017-08-25T14:16:19.698Z,3.37
2017-08-25T14:18:48.039Z,3.70
2017-08-25T14:21:16.377Z,3.00
2017-08-25T14:23:44.702Z,2.70
2017-08-25T14:26:13.068Z,3.27
2017-08-25T14:28:41.399Z,3.37
2017-08-25T14:31:09.729Z,3.70
2017-08-25T14:33:38.057Z,3.00
2017-08-25T14:36:06.390Z,3.07
2017-08-25T14:38:34.730Z,3.23
2017-08-25T14:41:03.227Z,2.87
2017-08-25T14:43:31.565Z,3.00
2017-08-25T14:45:59.894Z,3.60
2017-08-25T14:48:28.230Z,3.40
2017-08-25T14:50:56.566Z,3.77
2017-08-25T14:53:24.898Z,2.77
2017-08-25T14:55:53.242Z,2.30
2017-08-25T14:58:21.883Z,3.07
2017-08-25T15:00:50.218Z,3.63
2017-08-25T15:03:18.793Z,3.60
2017-08-25T15:05:47.365Z,3.13
2017-08-25T15:08:15.968Z,3.23
2017-08-25T15:10:44.361Z,3.10
2017-08-25T15:13:12.768Z,3.40
2017-08-25T15:15:41.180Z,2.90
2017-08-25T15:18:09.499Z,3.80
2017-08-25T15:20:37.838Z,3.30
2017-08-25T15:23:06.168Z,3.03
2017-08-25T15:25:34.498Z,3.40
2017-08-25T15:28:02.835Z,3.70
2017-08-25T15:30:31.170Z,3.23
2017-08-25T15:32:59.502Z,3.77
2017-08-25T15:35:27.848Z,4.20
2017-08-25T15:37:56.183Z,4.43
2017-08-25T15:40:24.555Z,3.23
2017-08-25T15:42:52.930Z,2.63
2017-08-25T15:45:21.304Z,4.87
2017-08-25T15:47:49.678Z,3.63
2017-08-25T15:50:18.034Z,3.70
2017-08-25T15:52:46.366Z,3.37
2017-08-25T15:55:14.699Z,4.87
2017-08-25T15:57:43.031Z,3.60
2017-08-25T16:00:11.398Z,4.73
2017-08-25T16:02:40.082Z,4.40
2017-08-25T16:05:08.466Z,4.10
2017-08-25T16:07:36.812Z,4.30
2017-08-25T16:10:06.230Z,4.60
2017-08-25T16:12:34.570Z,4.50
2017-08-25T16:15:02.930Z,3.60
2017-08-25T16:17:31.262Z,4.17
2017-08-25T16:19:59.606Z,4.57
2017-08-25T16:22:27.940Z,4.17
2017-08-25T16:24:56.270Z,3.50
2017-08-25T16:27:24.606Z,4.00
2017-08-25T16:29:52.983Z,4.13
2017-08-25T16:32:22.700Z,3.90
2017-08-25T16:34:51.638Z,4.40
2017-08-25T16:37:19.972Z,4.80
2017-08-25T16:39:48.586Z,4.90
2017-08-25T16:42:18.488Z,4.10
2017-08-25T16:44:46.899Z,4.83
2017-08-25T16:47:15.234Z,5.20
2017-08-25T16:49:43.641Z,4.97
2017-08-25T16:52:11.994Z,4.60
2017-08-25T16:54:40.352Z,4.40
2017-08-25T16:57:08.790Z,5.27
2017-08-25T16:59:37.129Z,4.30
2017-08-25T17:02:05.471Z,4.23
2017-08-25T17:04:33.955Z,4.67
2017-08-25T17:07:02.458Z,4.10
2017-08-25T17:09:30.822Z,4.90
2017-08-25T17:11:59.159Z,4.67
2017-08-25T17:14:27.495Z,4.20
2017-08-25T17:16:55.862Z,4.73
2017-08-25T17:19:24.231Z,6.90
2017-08-25T17:21:52.595Z,4.80
2017-08-25T17:24:20.951Z,9.57
2017-08-25T17:26:49.331Z,13.40
2017-08-25T17:29:17.674Z,16.63
2017-08-25T17:31:46.010Z,5.50
2017-08-25T17:34:14.382Z,25.50
2017-08-25T17:36:42.723Z,29.07
2017-08-25T17:39:11.068Z,13.67
2017-08-25T17:41:39.447Z,10.70
2017-08-25T17:44:07.790Z,4.70
2017-08-25T17:46:36.126Z,5.60
2017-08-25T17:49:04.493Z,12.83
2017-08-25T17:51:32.826Z,6.00
2017-08-25T17:54:01.169Z,17.60
2017-08-25T17:56:29.534Z,7.33
2017-08-25T17:58:57.944Z,17.17
2017-08-25T18:01:26.286Z,17.10
2017-08-25T18:03:54.648Z,16.47
2017-08-25T18:06:23.018Z,15.33
2017-08-25T18:08:51.399Z,15.53
2017-08-25T18:11:20.002Z,8.20
2017-08-25T18:13:48.342Z,12.33
2017-08-25T18:16:16.699Z,12.20
2017-08-25T18:18:45.071Z,10.67
2017-08-25T18:21:13.419Z,12.30
2017-08-25T18:23:41.758Z,9.53
2017-08-25T18:26:10.102Z,7.60
2017-08-25T18:28:38.438Z,8.70
2017-08-25T18:31:06.778Z,9.37
2017-08-25T18:33:35.122Z,4.47
2017-08-25T18:36:03.454Z,4.23
2017-08-25T18:38:31.835Z,6.27
2017-08-25T18:41:00.309Z,6.37
2017-08-25T18:43:28.654Z,6.67
2017-08-25T18:45:56.993Z,6.47
2017-08-25T18:48:25.347Z,5.53
2017-08-25T18:50:53.721Z,6.20
2017-08-25T18:53:22.101Z,5.43
2017-08-25T18:55:50.447Z,4.77
2017-08-25T18:58:18.830Z,4.47
2017-08-25T19:00:47.183Z,4.97
2017-08-25T19:03:15.526Z,4.27
2017-08-25T19:05:43.910Z,3.90
2017-08-25T19:08:12.274Z,5.03
2017-08-25T19:10:40.623Z,4.40
2017-08-25T19:13:08.956Z,3.60
2017-08-25T19:15:37.295Z,4.50
2017-08-25T19:18:05.632Z,4.07
2017-08-25T19:20:33.994Z,4.50
2017-08-25T19:23:02.330Z,4.00
2017-08-25T19:25:30.667Z,3.50
2017-08-25T19:27:59.004Z,3.93
2017-08-25T19:30:27.366Z,3.57
2017-08-25T19:32:56.495Z,3.03
2017-08-25T19:35:24.827Z,3.00
2017-08-25T19:37:53.170Z,3.57
2017-08-25T19:40:21.585Z,3.60
2017-08-25T19:42:49.953Z,3.70
2017-08-25T19:45:18.340Z,3.33
2017-08-25T19:47:46.672Z,3.40
2017-08-25T19:50:15.003Z,3.10
2017-08-25T19:52:43.343Z,3.50
2017-08-25T19:55:11.679Z,3.60
2017-08-25T19:57:40.003Z,2.40
2017-08-25T20:00:08.686Z,2.93
2017-08-25T20:02:37.048Z,2.83
2017-08-25T20:05:05.384Z,2.80
2017-08-25T20:07:33.734Z,2.83
2017-08-25T20:10:02.062Z,3.10
2017-08-25T20:12:30.394Z,2.77
2017-08-25T20:14:58.734Z,3.20
2017-08-25T20:17:27.086Z,2.47
2017-08-25T20:19:55.418Z,2.70
2017-08-25T20:22:24.329Z,3.10
2017-08-25T20:24:53.663Z,2.90
2017-08-25T20:27:22.018Z,3.03
2017-08-25T20:29:50.374Z,2.50
2017-08-25T20:32:18.744Z,2.40
2017-08-25T20:34:47.078Z,2.70
2017-08-25T20:37:15.411Z,2.70
2017-08-25T20:39:43.750Z,2.67
2017-08-25T20:42:12.082Z,2.87
2017-08-25T20:44:40.419Z,4.90
2017-08-25T20:47:08.755Z,4.07
2017-08-25T20:49:37.322Z,4.07
2017-08-25T20:52:05.657Z,3.30
2017-08-25T20:54:33.988Z,2.90
2017-08-25T20:57:02.316Z,2.83
2017-08-25T20:59:30.646Z,2.77
2017-08-25T21:01:58.986Z,2.90
2017-08-25T21:04:27.314Z,2.80
2017-08-25T21:06:55.650Z,3.20
2017-08-25T21:09:23.986Z,2.87
2017-08-25T21:11:52.314Z,3.97
2017-08-25T21:14:20.647Z,2.70
2017-08-25T21:16:48.991Z,2.60
2017-08-25T21:19:17.323Z,2.93
2017-08-25T21:21:45.655Z,3.17
2017-08-25T21:24:13.998Z,3.00
2017-08-25T21:26:42.358Z,2.80
2017-08-25T21:29:10.686Z,2.57
2017-08-25T21:31:39.016Z,2.53
2017-08-25T21:34:07.346Z,2.60
2017-08-25T21:36:35.691Z,3.30
2017-08-25T21:39:04.545Z,2.43
2017-08-25T21:41:32.910Z,2.60
2017-08-25T21:44:01.237Z,2.57
2017-08-25T21:46:29.682Z,2.80
2017-08-25T21:48:58.014Z,2.57
2017-08-25T21:51:26.346Z,2.50
2017-08-25T21:53:54.690Z,2.73
2017-08-25T21:56:23.010Z,2.73
2017-08-25T21:58:51.348Z,2.60
2017-08-25T22:01:19.675Z,2.37
2017-08-25T22:03:48.007Z,2.50
2017-08-25T22:06:16.346Z,5.00
2017-08-25T22:08:44.682Z,4.73
2017-08-25T22:11:13.015Z,3.00
2017-08-25T22:13:41.354Z,2.77
2017-08-25T22:16:09.679Z,2.50
2017-08-25T22:18:38.010Z,2.63
2017-08-25T22:21:06.342Z,2.50
2017-08-25T22:23:34.675Z,2.57
2017-08-25T22:26:03.187Z,2.70
2017-08-25T22:28:31.515Z,2.90
2017-08-25T22:30:59.862Z,2.83
2017-08-25T22:33:28.186Z,2.30
2017-08-25T22:35:56.518Z,2.77
2017-08-25T22:38:24.850Z,2.90
2017-08-25T22:40:53.214Z,2.60
2017-08-25T22:43:21.577Z,4.90
2017-08-25T22:45:49.911Z,2.53
2017-08-25T22:48:18.239Z,2.90
2017-08-25T22:50:46.594Z,2.70
2017-08-25T22:53:14.937Z,2.70
2017-08-25T22:55:43.305Z,2.80
2017-08-25T22:58:12.491Z,3.27
2017-08-25T23:00:41.651Z,2.90
2017-08-25T23:03:10.016Z,2.77
2017-08-25T23:05:38.347Z,5.17
2017-08-25T23:08:06.698Z,4.20
2017-08-25T23:10:35.058Z,2.87
2017-08-25T23:13:03.396Z,2.50
2017-08-25T23:15:31.845Z,2.70
2017-08-25T23:18:00.184Z,2.53
2017-08-25T23:20:28.878Z,2.67
2017-08-25T23:22:57.241Z,2.60
2017-08-25T23:25:25.574Z,3.20
2017-08-25T23:27:53.906Z,2.60
2017-08-25T23:30:22.269Z,2.50
2017-08-25T23:32:50.612Z,2.60
2017-08-25T23:35:18.966Z,2.47
2017-08-25T23:37:47.295Z,2.53
2017-08-25T23:40:15.634Z,5.27
2017-08-25T23:42:43.976Z,3.37
2017-08-25T23:45:12.303Z,3.27
2017-08-25T23:47:40.634Z,3.03
2017-08-25T23:50:08.968Z,5.27
2017-08-25T23:52:37.294Z,4.80
2017-08-25T23:55:05.630Z,3.80
2017-08-25T23:57:34.122Z,3.17
